Aviation Digital Data Service (ADDS)

Output produced by METARs form (1902 UTC 25 September 2020)
found at http://www.aviationweather.gov/metar/data/
 
METAR text: SUMU 251900Z 09010KT 9999 FEW004 OVC100 16/13 Q1015 TEMPO RA
Conditions at: SUMU (CARRASCO (CIV/MI, UY) observed 1900 UTC 25 September 2020
Temperature: 16.0°C (61°F)
Dewpoint: 13.0°C (55°F) [RH = 82%]
Pressure (altimeter): 29.97 inches Hg (1015.0 mb)
Winds: from the E (90 degrees) at 12 MPH (10 knots; 5.1 m/s)
Visibility: 6 or more miles (10+ km)
Ceiling: 10000 feet AGL
Clouds: few clouds at 400 feet AGL
overcast cloud deck at 10000 feet AGL
Weather: no significant weather observed at this time

METAR text: SUMU 251815Z 13014KT 7000 BKN003 OVC100 15/13 Q1015 NOSIG
Conditions at: SUMU (CARRASCO (CIV/MI, UY) observed 1815 UTC 25 September 2020
Temperature: 15.0°C (59°F)
Dewpoint: 13.0°C (55°F) [RH = 88%]
Pressure (altimeter): 29.97 inches Hg (1015.0 mb)
Winds: from the SE (130 degrees) at 16 MPH (14 knots; 7.2 m/s)
Visibility: 4 miles ( 7 km)
Ceiling: 300 feet AGL
Clouds: broken clouds at 300 feet AGL
overcast cloud deck at 10000 feet AGL
Weather: no significant weather observed at this time

METAR text: SUMU 251800Z 13012KT CAVOK 16/12 Q1015 NOSIG
Conditions at: SUMU (CARRASCO (CIV/MI, UY) observed 1800 UTC 25 September 2020
Temperature: 16.0°C (61°F)
Dewpoint: 12.0°C (54°F) [RH = 77%]
Pressure (altimeter): 29.97 inches Hg (1015.0 mb)
Winds: from the SE (130 degrees) at 14 MPH (12 knots; 6.2 m/s)
Visibility: 6 or more miles (10+ km)
Ceiling: ceiling and visibility are OK
Clouds: unknown
Weather: no significant weather observed at this time

METAR text: SUMU 251700Z 11009KT CAVOK 18/11 Q1016 NOSIG
Conditions at: SUMU (CARRASCO (CIV/MI, UY) observed 1700 UTC 25 September 2020
Temperature: 18.0°C (64°F)
Dewpoint: 11.0°C (52°F) [RH = 64%]
Pressure (altimeter): 30.00 inches Hg (1016.0 mb)
Winds: from the ESE (110 degrees) at 10 MPH (9 knots; 4.6 m/s)
Visibility: 6 or more miles (10+ km)
Ceiling: ceiling and visibility are OK
Clouds: unknown
Weather: no significant weather observed at this time

METAR text: SUMU 251600Z 12012KT CAVOK 16/12 Q1017 NOSIG
Conditions at: SUMU (CARRASCO (CIV/MI, UY) observed 1600 UTC 25 September 2020
Temperature: 16.0°C (61°F)
Dewpoint: 12.0°C (54°F) [RH = 77%]
Pressure (altimeter): 30.03 inches Hg (1017.0 mb)
Winds: from the ESE (120 degrees) at 14 MPH (12 knots; 6.2 m/s)
Visibility: 6 or more miles (10+ km)
Ceiling: ceiling and visibility are OK
Clouds: unknown
Weather: no significant weather observed at this time

METAR text: SUMU 251500Z 11008KT CAVOK 17/10 Q1018 NOSIG
Conditions at: SUMU (CARRASCO (CIV/MI, UY) observed 1500 UTC 25 September 2020
Temperature: 17.0°C (63°F)
Dewpoint: 10.0°C (50°F) [RH = 63%]
Pressure (altimeter): 30.06 inches Hg (1018.0 mb)
Winds: from the ESE (110 degrees) at 9 MPH (8 knots; 4.1 m/s)
Visibility: 6 or more miles (10+ km)
Ceiling: ceiling and visibility are OK
Clouds: unknown
Weather: no significant weather observed at this time

METAR text: SUMU 251400Z 11005KT CAVOK 15/12 Q1019 NOSIG
Conditions at: SUMU (CARRASCO (CIV/MI, UY) observed 1400 UTC 25 September 2020
Temperature: 15.0°C (59°F)
Dewpoint: 12.0°C (54°F) [RH = 82%]
Pressure (altimeter): 30.09 inches Hg (1019.0 mb)
Winds: from the ESE (110 degrees) at 6 MPH (5 knots; 2.6 m/s)
Visibility: 6 or more miles (10+ km)
Ceiling: ceiling and visibility are OK
Clouds: unknown
Weather: no significant weather observed at this time

METAR text: SUMU 251300Z 13006KT CAVOK 14/12 Q1019 NOSIG
Conditions at: SUMU (CARRASCO (CIV/MI, UY) observed 1300 UTC 25 September 2020
Temperature: 14.0°C (57°F)
Dewpoint: 12.0°C (54°F) [RH = 88%]
Pressure (altimeter): 30.09 inches Hg (1019.0 mb)
Winds: from the SE (130 degrees) at 7 MPH (6 knots; 3.1 m/s)
Visibility: 6 or more miles (10+ km)
Ceiling: ceiling and visibility are OK
Clouds: unknown
Weather: no significant weather observed at this time

METAR text: SUMU 251200Z 13004KT CAVOK 14/12 Q1020 NOSIG
Conditions at: SUMU (CARRASCO (CIV/MI, UY) observed 1200 UTC 25 September 2020
Temperature: 14.0°C (57°F)
Dewpoint: 12.0°C (54°F) [RH = 88%]
Pressure (altimeter): 30.12 inches Hg (1020.0 mb)
Winds: from the SE (130 degrees) at 5 MPH (4 knots; 2.1 m/s)
Visibility: 6 or more miles (10+ km)
Ceiling: ceiling and visibility are OK
Clouds: unknown
Weather: no significant weather observed at this time

METAR text: SUMU 251100Z 12005KT 9999 FEW004 SCT080 BKN200 13/12 Q1019NOSIG
Conditions at: SUMU (CARRASCO (CIV/MI, UY) observed 1100 UTC 25 September 2020
Temperature: 13.0°C (55°F)
Dewpoint: 12.0°C (54°F) [RH = 94%]
Pressure (altimeter): missing
Winds: from the ESE (120 degrees) at 6 MPH (5 knots; 2.6 m/s)
Visibility: 6 or more miles (10+ km)
Ceiling: 20000 feet AGL
Clouds: few clouds at 400 feet AGL
scattered clouds at 8000 feet AGL
broken clouds at 20000 feet AGL
Weather: no significant weather observed at this time

METAR text: SUMU 251038Z 09005KT 6000 FEW003 SCT080 BKN200 12/12 Q1019 TEMPO BR
Conditions at: SUMU (CARRASCO (CIV/MI, UY) observed 1038 UTC 25 September 2020
Temperature: 12.0°C (54°F)
Dewpoint: 12.0°C (54°F) [RH = 100%]
Pressure (altimeter): 30.09 inches Hg (1019.0 mb)
Winds: from the E (90 degrees) at 6 MPH (5 knots; 2.6 m/s)
Visibility: 4 miles ( 6 km)
Ceiling: 20000 feet AGL
Clouds: few clouds at 300 feet AGL
scattered clouds at 8000 feet AGL
broken clouds at 20000 feet AGL
Weather: no significant weather observed at this time

METAR text: SUMU 251000Z 11006KT 2000 BR SCT002 BKN200 12/12 Q1018 TEMPO BR
Conditions at: SUMU (CARRASCO (CIV/MI, UY) observed 1000 UTC 25 September 2020
Temperature: 12.0°C (54°F)
Dewpoint: 12.0°C (54°F) [RH = 100%]
Pressure (altimeter): 30.06 inches Hg (1018.0 mb)
Winds: from the ESE (110 degrees) at 7 MPH (6 knots; 3.1 m/s)
Visibility: 1.24 miles (2.00 km)
Ceiling: 20000 feet AGL
Clouds: scattered clouds at 200 feet AGL
broken clouds at 20000 feet AGL
Weather: BR  (mist)

METAR text: SUMU 250941Z 11006KT 0050 R19/1000D R24/0450D FG VV002 12/12 Q1019 TEMPO BR
Conditions at: SUMU (CARRASCO (CIV/MI, UY) observed 0941 UTC 25 September 2020
Temperature: 12.0°C (54°F)
Dewpoint: 12.0°C (54°F) [RH = 100%]
Pressure (altimeter): 30.09 inches Hg (1019.0 mb)
Winds: from the ESE (110 degrees) at 7 MPH (6 knots; 3.1 m/s)
Visibility: 0.03 miles (0.05 km)
Ceiling: indefinite ceiling with vertical visibility of 200 feet AGL
Clouds: obscured sky
Weather: FG  (fog)

METAR text: SUMU 250931Z 11005KT 0200 FG BKN002 BKN200 12/12 Q1019 TEMPO BR
Conditions at: SUMU (CARRASCO (CIV/MI, UY) observed 0931 UTC 25 September 2020
Temperature: 12.0°C (54°F)
Dewpoint: 12.0°C (54°F) [RH = 100%]
Pressure (altimeter): 30.09 inches Hg (1019.0 mb)
Winds: from the ESE (110 degrees) at 6 MPH (5 knots; 2.6 m/s)
Visibility: 0.12 miles (0.19 km)
Ceiling: 200 feet AGL
Clouds: broken clouds at 200 feet AGL
broken clouds at 20000 feet AGL
Weather: FG  (fog)

METAR text: SUMU 250922Z 11006KT 2500 2000N BCFG BR SCT003 BKN200 12/11 Q1019 NOSIG
Conditions at: SUMU (CARRASCO (CIV/MI, UY) observed 0922 UTC 25 September 2020
Temperature: 12.0°C (54°F)
Dewpoint: 11.0°C (52°F) [RH = 94%]
Pressure (altimeter): 30.09 inches Hg (1019.0 mb)
Winds: from the ESE (110 degrees) at 7 MPH (6 knots; 3.1 m/s)
Visibility: 1.55 miles (2.49 km)
Ceiling: 20000 feet AGL
Clouds: scattered clouds at 300 feet AGL
broken clouds at 20000 feet AGL
Weather: BCFG BR  (patches of fog, mist)

METAR text: SUMU 250900Z 10003KT CAVOK 11/11 Q1018 NOSIG
Conditions at: SUMU (CARRASCO (CIV/MI, UY) observed 0900 UTC 25 September 2020
Temperature: 11.0°C (52°F)
Dewpoint: 11.0°C (52°F) [RH = 100%]
Pressure (altimeter): 30.06 inches Hg (1018.0 mb)
Winds: from the E (100 degrees) at 3 MPH (3 knots; 1.5 m/s)
Visibility: 6 or more miles (10+ km)
Ceiling: ceiling and visibility are OK
Clouds: unknown
Weather: no significant weather observed at this time

METAR text: SUMU 250800Z 11005KT CAVOK 11/10 Q1018 NOSIG
Conditions at: SUMU (CARRASCO (CIV/MI, UY) observed 0800 UTC 25 September 2020
Temperature: 11.0°C (52°F)
Dewpoint: 10.0°C (50°F) [RH = 94%]
Pressure (altimeter): 30.06 inches Hg (1018.0 mb)
Winds: from the ESE (110 degrees) at 6 MPH (5 knots; 2.6 m/s)
Visibility: 6 or more miles (10+ km)
Ceiling: ceiling and visibility are OK
Clouds: unknown
Weather: no significant weather observed at this time

METAR text: SUMU 250700Z 10003KT 9999 2000NW R19/0900D R24/P2000N BCFG NSC11/10 Q1018 NOSIG
Conditions at: SUMU (CARRASCO (CIV/MI, UY) observed 0700 UTC 25 September 2020
Temperature: 11.0°C (52°F)
Dewpoint: 10.0°C (50°F) [RH = 94%]
Pressure (altimeter): 30.06 inches Hg (1018.0 mb)
Winds: from the E (100 degrees) at 3 MPH (3 knots; 1.5 m/s)
Visibility: 6 or more miles (10+ km)
Ceiling: unknown
Clouds: missing
Weather: BCFG  (patches of fog)

METAR text: SUMU 250600Z 10003KT CAVOK 11/10 Q1018 NOSIG
Conditions at: SUMU (CARRASCO (CIV/MI, UY) observed 0600 UTC 25 September 2020
Temperature: 11.0°C (52°F)
Dewpoint: 10.0°C (50°F) [RH = 94%]
Pressure (altimeter): 30.06 inches Hg (1018.0 mb)
Winds: from the E (100 degrees) at 3 MPH (3 knots; 1.5 m/s)
Visibility: 6 or more miles (10+ km)
Ceiling: ceiling and visibility are OK
Clouds: unknown
Weather: no significant weather observed at this time

METAR text: SUMU 250500Z 10005KT CAVOK 11/10 Q1018 NOSIG
Conditions at: SUMU (CARRASCO (CIV/MI, UY) observed 0500 UTC 25 September 2020
Temperature: 11.0°C (52°F)
Dewpoint: 10.0°C (50°F) [RH = 94%]
Pressure (altimeter): 30.06 inches Hg (1018.0 mb)
Winds: from the E (100 degrees) at 6 MPH (5 knots; 2.6 m/s)
Visibility: 6 or more miles (10+ km)
Ceiling: ceiling and visibility are OK
Clouds: unknown
Weather: no significant weather observed at this time

METAR text: SUMU 250400Z 10005KT CAVOK 11/09 Q1018 NOSIG
Conditions at: SUMU (CARRASCO (CIV/MI, UY) observed 0400 UTC 25 September 2020
Temperature: 11.0°C (52°F)
Dewpoint: 9.0°C (48°F) [RH = 87%]
Pressure (altimeter): 30.06 inches Hg (1018.0 mb)
Winds: from the E (100 degrees) at 6 MPH (5 knots; 2.6 m/s)
Visibility: 6 or more miles (10+ km)
Ceiling: ceiling and visibility are OK
Clouds: unknown
Weather: no significant weather observed at this time

METAR text: SUMU 250300Z 08004KT CAVOK 11/10 Q1019 NOSIG
Conditions at: SUMU (CARRASCO (CIV/MI, UY) observed 0300 UTC 25 September 2020
Temperature: 11.0°C (52°F)
Dewpoint: 10.0°C (50°F) [RH = 94%]
Pressure (altimeter): 30.09 inches Hg (1019.0 mb)
Winds: from the E (80 degrees) at 5 MPH (4 knots; 2.1 m/s)
Visibility: 6 or more miles (10+ km)
Ceiling: ceiling and visibility are OK
Clouds: unknown
Weather: no significant weather observed at this time

METAR text: SUMU 250200Z 10006KT CAVOK 12/11 Q1019 NOSIG
Conditions at: SUMU (CARRASCO (CIV/MI, UY) observed 0200 UTC 25 September 2020
Temperature: 12.0°C (54°F)
Dewpoint: 11.0°C (52°F) [RH = 94%]
Pressure (altimeter): 30.09 inches Hg (1019.0 mb)
Winds: from the E (100 degrees) at 7 MPH (6 knots; 3.1 m/s)
Visibility: 6 or more miles (10+ km)
Ceiling: ceiling and visibility are OK
Clouds: unknown
Weather: no significant weather observed at this time

METAR text: SUMU 250100Z 10009KT CAVOK 13/12 Q1020 NOSIG
Conditions at: SUMU (CARRASCO (CIV/MI, UY) observed 0100 UTC 25 September 2020
Temperature: 13.0°C (55°F)
Dewpoint: 12.0°C (54°F) [RH = 94%]
Pressure (altimeter): 30.12 inches Hg (1020.0 mb)
Winds: from the E (100 degrees) at 10 MPH (9 knots; 4.6 m/s)
Visibility: 6 or more miles (10+ km)
Ceiling: ceiling and visibility are OK
Clouds: unknown
Weather: no significant weather observed at this time

METAR text: SUMU 250000Z 11011KT CAVOK 13/12 Q1019 NOSIG
Conditions at: SUMU (CARRASCO (CIV/MI, UY) observed 0000 UTC 25 September 2020
Temperature: 13.0°C (55°F)
Dewpoint: 12.0°C (54°F) [RH = 94%]
Pressure (altimeter): 30.09 inches Hg (1019.0 mb)
Winds: from the ESE (110 degrees) at 13 MPH (11 knots; 5.7 m/s)
Visibility: 6 or more miles (10+ km)
Ceiling: ceiling and visibility are OK
Clouds: unknown
Weather: no significant weather observed at this time

METAR text: SUMU 242300Z 11012KT CAVOK 13/12 Q1019 NOSIG
Conditions at: SUMU (CARRASCO (CIV/MI, UY) observed 2300 UTC 24 September 2020
Temperature: 13.0°C (55°F)
Dewpoint: 12.0°C (54°F) [RH = 94%]
Pressure (altimeter): 30.09 inches Hg (1019.0 mb)
Winds: from the ESE (110 degrees) at 14 MPH (12 knots; 6.2 m/s)
Visibility: 6 or more miles (10+ km)
Ceiling: ceiling and visibility are OK
Clouds: unknown
Weather: no significant weather observed at this time

METAR text: SUMU 242200Z 12011KT CAVOK 14/12 Q1019 NOSIG
Conditions at: SUMU (CARRASCO (CIV/MI, UY) observed 2200 UTC 24 September 2020
Temperature: 14.0°C (57°F)
Dewpoint: 12.0°C (54°F) [RH = 88%]
Pressure (altimeter): 30.09 inches Hg (1019.0 mb)
Winds: from the ESE (120 degrees) at 13 MPH (11 knots; 5.7 m/s)
Visibility: 6 or more miles (10+ km)
Ceiling: ceiling and visibility are OK
Clouds: unknown
Weather: no significant weather observed at this time

METAR text: SUMU 242100Z 12012KT CAVOK 15/11 Q1019 NOSIG
Conditions at: SUMU (CARRASCO (CIV/MI, UY) observed 2100 UTC 24 September 2020
Temperature: 15.0°C (59°F)
Dewpoint: 11.0°C (52°F) [RH = 77%]
Pressure (altimeter): 30.09 inches Hg (1019.0 mb)
Winds: from the ESE (120 degrees) at 14 MPH (12 knots; 6.2 m/s)
Visibility: 6 or more miles (10+ km)
Ceiling: ceiling and visibility are OK
Clouds: unknown
Weather: no significant weather observed at this time

METAR text: SUMU 242000Z 12011KT CAVOK 16/11 Q1019 NOSIG
Conditions at: SUMU (CARRASCO (CIV/MI, UY) observed 2000 UTC 24 September 2020
Temperature: 16.0°C (61°F)
Dewpoint: 11.0°C (52°F) [RH = 72%]
Pressure (altimeter): 30.09 inches Hg (1019.0 mb)
Winds: from the ESE (120 degrees) at 13 MPH (11 knots; 5.7 m/s)
Visibility: 6 or more miles (10+ km)
Ceiling: ceiling and visibility are OK
Clouds: unknown
Weather: no significant weather observed at this time

METAR text: SUMU 241900Z 13012KT CAVOK 16/11 Q1019 NOSIG
Conditions at: SUMU (CARRASCO (CIV/MI, UY) observed 1900 UTC 24 September 2020
Temperature: 16.0°C (61°F)
Dewpoint: 11.0°C (52°F) [RH = 72%]
Pressure (altimeter): 30.09 inches Hg (1019.0 mb)
Winds: from the SE (130 degrees) at 14 MPH (12 knots; 6.2 m/s)
Visibility: 6 or more miles (10+ km)
Ceiling: ceiling and visibility are OK
Clouds: unknown
Weather: no significant weather observed at this time

METAR text: SUMU 241800Z 14011KT CAVOK 16/10 Q1019 NOSIG
Conditions at: SUMU (CARRASCO (CIV/MI, UY) observed 1800 UTC 24 September 2020
Temperature: 16.0°C (61°F)
Dewpoint: 10.0°C (50°F) [RH = 68%]
Pressure (altimeter): 30.09 inches Hg (1019.0 mb)
Winds: from the SE (140 degrees) at 13 MPH (11 knots; 5.7 m/s)
Visibility: 6 or more miles (10+ km)
Ceiling: ceiling and visibility are OK
Clouds: unknown
Weather: no significant weather observed at this time

METAR text: SUMU 241700Z 13009KT CAVOK 17/09 Q1020 NOSIG
Conditions at: SUMU (CARRASCO (CIV/MI, UY) observed 1700 UTC 24 September 2020
Temperature: 17.0°C (63°F)
Dewpoint: 9.0°C (48°F) [RH = 59%]
Pressure (altimeter): 30.12 inches Hg (1020.0 mb)
Winds: from the SE (130 degrees) at 10 MPH (9 knots; 4.6 m/s)
Visibility: 6 or more miles (10+ km)
Ceiling: ceiling and visibility are OK
Clouds: unknown
Weather: no significant weather observed at this time

METAR text: SUMU 241600Z 12009KT CAVOK 16/09 Q1021 NOSIG
Conditions at: SUMU (CARRASCO (CIV/MI, UY) observed 1600 UTC 24 September 2020
Temperature: 16.0°C (61°F)
Dewpoint: 9.0°C (48°F) [RH = 63%]
Pressure (altimeter): 30.15 inches Hg (1021.0 mb)
Winds: from the ESE (120 degrees) at 10 MPH (9 knots; 4.6 m/s)
Visibility: 6 or more miles (10+ km)
Ceiling: ceiling and visibility are OK
Clouds: unknown
Weather: no significant weather observed at this time

METAR text: SUMU 241500Z 12011KT CAVOK 16/09 Q1021 NOSIG
Conditions at: SUMU (CARRASCO (CIV/MI, UY) observed 1500 UTC 24 September 2020
Temperature: 16.0°C (61°F)
Dewpoint: 9.0°C (48°F) [RH = 63%]
Pressure (altimeter): 30.15 inches Hg (1021.0 mb)
Winds: from the ESE (120 degrees) at 13 MPH (11 knots; 5.7 m/s)
Visibility: 6 or more miles (10+ km)
Ceiling: ceiling and visibility are OK
Clouds: unknown
Weather: no significant weather observed at this time

METAR text: SUMU 241400Z 13008KT CAVOK 17/09 Q1022 NOSIG
Conditions at: SUMU (CARRASCO (CIV/MI, UY) observed 1400 UTC 24 September 2020
Temperature: 17.0°C (63°F)
Dewpoint: 9.0°C (48°F) [RH = 59%]
Pressure (altimeter): 30.18 inches Hg (1022.0 mb)
Winds: from the SE (130 degrees) at 9 MPH (8 knots; 4.1 m/s)
Visibility: 6 or more miles (10+ km)
Ceiling: ceiling and visibility are OK
Clouds: unknown
Weather: no significant weather observed at this time

METAR text: SUMU 241300Z 13005KT CAVOK 16/10 Q1022 NOSIG
Conditions at: SUMU (CARRASCO (CIV/MI, UY) observed 1300 UTC 24 September 2020
Temperature: 16.0°C (61°F)
Dewpoint: 10.0°C (50°F) [RH = 68%]
Pressure (altimeter): 30.18 inches Hg (1022.0 mb)
Winds: from the SE (130 degrees) at 6 MPH (5 knots; 2.6 m/s)
Visibility: 6 or more miles (10+ km)
Ceiling: ceiling and visibility are OK
Clouds: unknown
Weather: no significant weather observed at this time

METAR text: SUMU 241200Z 00000KT CAVOK 15/11 Q1022 NOSIG
Conditions at: SUMU (CARRASCO (CIV/MI, UY) observed 1200 UTC 24 September 2020
Temperature: 15.0°C (59°F)
Dewpoint: 11.0°C (52°F) [RH = 77%]
Pressure (altimeter): 30.18 inches Hg (1022.0 mb)
Winds: calm
Visibility: 6 or more miles (10+ km)
Ceiling: ceiling and visibility are OK
Clouds: unknown
Weather: no significant weather observed at this time

METAR text: SUMU 241100Z 00000KT 9999 4000NW BCFG NSC 12/11 Q1022 NOSIG
Conditions at: SUMU (CARRASCO (CIV/MI, UY) observed 1100 UTC 24 September 2020
Temperature: 12.0°C (54°F)
Dewpoint: 11.0°C (52°F) [RH = 94%]
Pressure (altimeter): 30.18 inches Hg (1022.0 mb)
Winds: calm
Visibility: 6 or more miles (10+ km)
Ceiling: at least 12,000 feet AGL
Clouds: sky clear below 12,000 feet AGL
Weather: BCFG  (patches of fog)

METAR text: SUMU 241000Z 00000KT 9999 MIFG NSC 09/08 Q1022 NOSIG
Conditions at: SUMU (CARRASCO (CIV/MI, UY) observed 1000 UTC 24 September 2020
Temperature: 9.0°C (48°F)
Dewpoint: 8.0°C (46°F) [RH = 93%]
Pressure (altimeter): 30.18 inches Hg (1022.0 mb)
Winds: calm
Visibility: 6 or more miles (10+ km)
Ceiling: at least 12,000 feet AGL
Clouds: sky clear below 12,000 feet AGL
Weather: MIFG  (shallow fog)

METAR text: SUMU 240900Z 05002KT 7000 NSC 09/07 Q1021 NOSIG
Conditions at: SUMU (CARRASCO (CIV/MI, UY) observed 0900 UTC 24 September 2020
Temperature: 9.0°C (48°F)
Dewpoint: 7.0°C (45°F) [RH = 87%]
Pressure (altimeter): 30.15 inches Hg (1021.0 mb)
Winds: from the NE (50 degrees) at 2 MPH (2 knots; 1.0 m/s)
Visibility: 4 miles ( 7 km)
Ceiling: at least 12,000 feet AGL
Clouds: sky clear below 12,000 feet AGL
Weather: no significant weather observed at this time

METAR text: SUMU 240800Z 14002KT 8000 3000NW R19/1400U R24/P2000N MIFG NSC 10/09 Q1020 TEMPO FG
Conditions at: SUMU (CARRASCO (CIV/MI, UY) observed 0800 UTC 24 September 2020
Temperature: 10.0°C (50°F)
Dewpoint: 9.0°C (48°F) [RH = 93%]
Pressure (altimeter): 30.12 inches Hg (1020.0 mb)
Winds: from the SE (140 degrees) at 2 MPH (2 knots; 1.0 m/s)
Visibility: 5 miles ( 8 km)
Ceiling: at least 12,000 feet AGL
Clouds: sky clear below 12,000 feet AGL
Weather: MIFG  (shallow fog)

METAR text: SUMU 240713Z 00000KT 6000 2000NW R19/0250N R24/P2000N BCFG BR NSC 10/10 Q1020 TEMPO BR
Conditions at: SUMU (CARRASCO (CIV/MI, UY) observed 0713 UTC 24 September 2020
Temperature: 10.0°C (50°F)
Dewpoint: 10.0°C (50°F) [RH = 100%]
Pressure (altimeter): 30.12 inches Hg (1020.0 mb)
Winds: calm
Visibility: 4 miles ( 6 km)
Ceiling: at least 12,000 feet AGL
Clouds: sky clear below 12,000 feet AGL
Weather: BCFG BR  (patches of fog, mist)

Forecast for: SUMU (CARRASCO (CIV/MI, UY)
Text: SUMU 251745Z 2518/2618 06010KT CAVOK TX18/2618Z TN12/2610Z
Forecast period: 1800 UTC 25 September 2020 to 1800 UTC 26 September 2020
Forecast type: FROM: standard forecast or significant change
Winds: from the ENE (60 degrees) at 12 MPH (10 knots; 5.1 m/s)
Visibility: 6 or more miles (10+ km)
Ceiling: unknown
Clouds: missing
Weather: no significant weather forecast for this period
Text: TEMPO 2518/2606 5000 RA BKN023 BKN070
Forecast period: 1800 UTC 25 September 2020 to 0600 UTC 26 September 2020
Forecast type: TEMPORARY: The following changes expected for less than half the time period
Visibility: 3 miles (5 km)
Ceiling: 2300 feet AGL
Clouds: broken clouds at 2300 feet AGL
broken clouds at 7000 feet AGL
Weather: RA  (moderate rain)
Text: TEMPO 2520/2606 06015KT TS FEW040CB
Forecast period: 2000 UTC 25 September 2020 to 0600 UTC 26 September 2020
Forecast type: TEMPORARY: The following changes expected for less than half the time period
Winds: from the ENE (60 degrees) at 17 MPH (15 knots; 7.7 m/s)
Visibility: missing
Ceiling: at least 12,000 feet AGL
Clouds: few clouds at 4000 feet AGL
Weather: TS  (thunderstorm)
Text: TEMPO 2606/2618 3000 TSRA BR BKN006 FEW040CB OVC070 07015KT
Forecast period: 0600 to 1800 UTC 26 September 2020
Forecast type: TEMPORARY: The following changes expected for less than half the time period
Winds: from the ENE (70 degrees) at 17 MPH (15 knots; 7.7 m/s)
Visibility: 1.86 miles (2.99 km)
Ceiling: 600 feet AGL
Clouds: broken clouds at 600 feet AGL
few clouds at 4000 feet AGL
overcast cloud deck at 7000 feet AGL
Weather: TSRA BR  (rain associated with thunderstorm(s), mist)